map of MIU home
MIU - Airport
Location
City:  Maiduguri, Borno, Nigeria
Name:Maiduguri International Airport
ICAO:DNMA
IATA:MIU

Details
Type:Airport (Aerodrome, Airfield)
Use:Public/Civil, International (customs port of entry)
Latitude:1151'19"N (11.855347)
Longitude:1304'51"E (13.080950)
Datum:WGS 1984
Elevation:1099 ft (335 m)
Variation:0.87E (WMM2015 magnetic declination)
0.10 annual change
Runways:1
Longest:9846 × 197 ft (3001 × 60 m), paved

Time
Time Zone:UTC+1
Local Time:

Weather
TAF:DNMA 181540Z 1818/1924 07010KT CAVOK
TEMPO 1904/1910 5000 HZ NSC

Related Locations
Nearby:
Farthest:FTI: 12205 mi / 19642 km
Fitiuta Village, AS

Find:

   beyond  
but within

Other Information
Maps:
NOTAMs:
Links:
Sources:

  
  • flag of Nigeria
  

Sectional Chart

Flight Planning
at skyvector.com

Satellite Image

Google Maps Satellite view

 

Copyright © 2004-2018 Karl L. Swartz. All rights reserved.
The Great Circle Mapper name and logo are trademarks of the Great Circle Mapper.
All other trademarks mentioned herein belong to their respective owners.
Please see credits for attibutions and further copyright information.

  Follow gcmap on Facebook Follow gcmap on Twitter Follow gcmap on Google+ GCmap on LinkedIn

hCard Microformat

Geo Microformat